sensor_id;sensor_type;location;lat;lon;timestamp;temperature;humidity
666;DHT22;315;48.738;9.126;2023-08-06T00:02:03;15.60;99.90
666;DHT22;315;48.738;9.126;2023-08-06T00:04:28;15.60;99.90
666;DHT22;315;48.738;9.126;2023-08-06T00:06:54;15.60;99.90
666;DHT22;315;48.738;9.126;2023-08-06T00:09:19;15.50;99.90
666;DHT22;315;48.738;9.126;2023-08-06T00:11:45;15.40;99.90
666;DHT22;315;48.738;9.126;2023-08-06T00:14:12;15.40;99.90
666;DHT22;315;48.738;9.126;2023-08-06T00:16:42;15.30;99.90
666;DHT22;315;48.738;9.126;2023-08-06T00:19:08;15.30;99.90
666;DHT22;315;48.738;9.126;2023-08-06T00:21:33;15.20;99.90
666;DHT22;315;48.738;9.126;2023-08-06T00:23:59;15.10;99.90
666;DHT22;315;48.738;9.126;2023-08-06T00:26:24;15.10;99.90
666;DHT22;315;48.738;9.126;2023-08-06T00:28:50;15.00;99.90
666;DHT22;315;48.738;9.126;2023-08-06T00:31:15;15.00;99.90
666;DHT22;315;48.738;9.126;2023-08-06T00:33:41;14.90;99.90
666;DHT22;315;48.738;9.126;2023-08-06T00:36:06;14.90;99.90
666;DHT22;315;48.738;9.126;2023-08-06T00:38:32;14.90;99.90
666;DHT22;315;48.738;9.126;2023-08-06T00:40:57;14.90;99.90
666;DHT22;315;48.738;9.126;2023-08-06T00:43:23;14.80;99.90
666;DHT22;315;48.738;9.126;2023-08-06T00:45:48;14.80;99.90
666;DHT22;315;48.738;9.126;2023-08-06T00:48:14;14.80;99.90
666;DHT22;315;48.738;9.126;2023-08-06T00:50:40;14.80;99.90
666;DHT22;315;48.738;9.126;2023-08-06T00:53:06;14.80;99.90
666;DHT22;315;48.738;9.126;2023-08-06T00:55:32;14.80;99.90
666;DHT22;315;48.738;9.126;2023-08-06T00:57:58;14.70;99.90
666;DHT22;315;48.738;9.126;2023-08-06T01:00:24;14.60;99.90
666;DHT22;315;48.738;9.126;2023-08-06T01:02:50;14.60;99.90
666;DHT22;315;48.738;9.126;2023-08-06T01:05:15;14.50;99.90
666;DHT22;315;48.738;9.126;2023-08-06T01:08:10;14.50;99.90
666;DHT22;315;48.738;9.126;2023-08-06T01:13:41;14.40;99.90
666;DHT22;315;48.738;9.126;2023-08-06T01:16:09;14.40;99.90
666;DHT22;315;48.738;9.126;2023-08-06T01:18:35;14.40;99.90
666;DHT22;315;48.738;9.126;2023-08-06T01:21:02;14.40;99.90
666;DHT22;315;48.738;9.126;2023-08-06T01:23:28;14.40;99.90
666;DHT22;315;48.738;9.126;2023-08-06T01:28:50;14.40;99.90
666;DHT22;315;48.738;9.126;2023-08-06T01:31:23;14.40;99.90
666;DHT22;315;48.738;9.126;2023-08-06T01:33:50;14.40;99.90
666;DHT22;315;48.738;9.126;2023-08-06T01:36:17;14.40;99.90
666;DHT22;315;48.738;9.126;2023-08-06T01:38:44;14.40;99.90
666;DHT22;315;48.738;9.126;2023-08-06T01:41:09;14.40;99.90
666;DHT22;315;48.738;9.126;2023-08-06T01:43:35;14.40;99.90
666;DHT22;315;48.738;9.126;2023-08-06T01:46:00;14.40;99.90
666;DHT22;315;48.738;9.126;2023-08-06T01:48:26;14.40;99.90
666;DHT22;315;48.738;9.126;2023-08-06T01:50:51;14.30;99.90
666;DHT22;315;48.738;9.126;2023-08-06T01:53:17;14.30;99.90
666;DHT22;315;48.738;9.126;2023-08-06T01:55:48;14.20;99.90
666;DHT22;315;48.738;9.126;2023-08-06T01:58:13;14.20;99.90
666;DHT22;315;48.738;9.126;2023-08-06T02:00:39;14.20;99.90
666;DHT22;315;48.738;9.126;2023-08-06T02:03:05;14.10;99.90
666;DHT22;315;48.738;9.126;2023-08-06T02:05:30;14.10;99.90
666;DHT22;315;48.738;9.126;2023-08-06T02:07:56;14.00;99.90
666;DHT22;315;48.738;9.126;2023-08-06T02:10:21;14.00;99.90
666;DHT22;315;48.738;9.126;2023-08-06T02:12:47;13.90;99.90
666;DHT22;315;48.738;9.126;2023-08-06T02:15:12;13.90;99.90
666;DHT22;315;48.738;9.126;2023-08-06T02:17:38;13.80;99.90
666;DHT22;315;48.738;9.126;2023-08-06T02:20:04;13.80;99.90
666;DHT22;315;48.738;9.126;2023-08-06T02:22:30;13.80;99.90
666;DHT22;315;48.738;9.126;2023-08-06T02:24:55;13.70;99.90
666;DHT22;315;48.738;9.126;2023-08-06T02:27:21;13.70;99.90
666;DHT22;315;48.738;9.126;2023-08-06T02:29:46;13.70;99.90
666;DHT22;315;48.738;9.126;2023-08-06T02:32:12;13.60;99.90
666;DHT22;315;48.738;9.126;2023-08-06T02:34:37;13.60;99.90
666;DHT22;315;48.738;9.126;2023-08-06T02:37:03;13.60;99.90
666;DHT22;315;48.738;9.126;2023-08-06T02:39:28;13.60;99.90
666;DHT22;315;48.738;9.126;2023-08-06T02:41:54;13.50;99.90
666;DHT22;315;48.738;9.126;2023-08-06T02:44:19;13.50;99.90
666;DHT22;315;48.738;9.126;2023-08-06T02:46:45;13.50;99.90
666;DHT22;315;48.738;9.126;2023-08-06T02:49:11;13.50;99.90
666;DHT22;315;48.738;9.126;2023-08-06T02:51:36;13.50;99.90
666;DHT22;315;48.738;9.126;2023-08-06T02:54:02;13.50;99.90
666;DHT22;315;48.738;9.126;2023-08-06T02:56:27;13.50;99.90
666;DHT22;315;48.738;9.126;2023-08-06T02:58:53;13.50;99.90
666;DHT22;315;48.738;9.126;2023-08-06T03:01:18;13.40;99.90
666;DHT22;315;48.738;9.126;2023-08-06T03:03:44;13.50;99.90
666;DHT22;315;48.738;9.126;2023-08-06T03:06:09;13.50;99.90
666;DHT22;315;48.738;9.126;2023-08-06T03:08:35;13.50;99.90
666;DHT22;315;48.738;9.126;2023-08-06T03:11:01;13.60;99.90
666;DHT22;315;48.738;9.126;2023-08-06T03:13:26;13.70;99.90
666;DHT22;315;48.738;9.126;2023-08-06T03:15:58;13.70;99.90
666;DHT22;315;48.738;9.126;2023-08-06T03:18:23;13.80;99.90
666;DHT22;315;48.738;9.126;2023-08-06T03:20:51;13.80;99.90
666;DHT22;315;48.738;9.126;2023-08-06T03:23:17;13.80;99.90
666;DHT22;315;48.738;9.126;2023-08-06T03:25:42;13.80;99.90
666;DHT22;315;48.738;9.126;2023-08-06T03:28:08;13.70;99.90
666;DHT22;315;48.738;9.126;2023-08-06T03:30:34;13.70;99.90
666;DHT22;315;48.738;9.126;2023-08-06T03:32:59;13.80;99.90
666;DHT22;315;48.738;9.126;2023-08-06T03:35:25;13.80;99.90
666;DHT22;315;48.738;9.126;2023-08-06T03:37:50;13.70;99.90
666;DHT22;315;48.738;9.126;2023-08-06T03:40:16;13.80;99.90
666;DHT22;315;48.738;9.126;2023-08-06T03:42:41;13.80;99.90
666;DHT22;315;48.738;9.126;2023-08-06T03:45:07;13.80;99.90
666;DHT22;315;48.738;9.126;2023-08-06T03:47:33;13.90;99.90
666;DHT22;315;48.738;9.126;2023-08-06T03:49:58;13.90;99.90
666;DHT22;315;48.738;9.126;2023-08-06T03:52:24;13.90;99.90
666;DHT22;315;48.738;9.126;2023-08-06T03:54:49;14.00;99.90
666;DHT22;315;48.738;9.126;2023-08-06T03:57:15;14.00;99.90
666;DHT22;315;48.738;9.126;2023-08-06T03:59:41;14.00;99.90
666;DHT22;315;48.738;9.126;2023-08-06T04:02:06;14.00;99.90
666;DHT22;315;48.738;9.126;2023-08-06T04:04:32;14.00;99.90
666;DHT22;315;48.738;9.126;2023-08-06T04:06:57;14.00;99.90
666;DHT22;315;48.738;9.126;2023-08-06T04:09:23;14.00;99.90
666;DHT22;315;48.738;9.126;2023-08-06T04:11:48;14.00;99.90
666;DHT22;315;48.738;9.126;2023-08-06T04:14:14;14.10;99.90
666;DHT22;315;48.738;9.126;2023-08-06T04:16:39;14.00;99.90
666;DHT22;315;48.738;9.126;2023-08-06T04:19:05;14.00;99.90
666;DHT22;315;48.738;9.126;2023-08-06T04:21:30;14.00;99.90
666;DHT22;315;48.738;9.126;2023-08-06T04:23:56;13.90;99.90
666;DHT22;315;48.738;9.126;2023-08-06T04:26:22;13.80;99.90
666;DHT22;315;48.738;9.126;2023-08-06T04:28:47;13.80;99.90
666;DHT22;315;48.738;9.126;2023-08-06T04:31:14;13.70;99.90
666;DHT22;315;48.738;9.126;2023-08-06T04:33:39;13.80;99.90
666;DHT22;315;48.738;9.126;2023-08-06T04:36:05;13.70;99.90
666;DHT22;315;48.738;9.126;2023-08-06T04:38:31;13.80;99.90
666;DHT22;315;48.738;9.126;2023-08-06T04:40:57;13.70;99.90
666;DHT22;315;48.738;9.126;2023-08-06T04:43:23;13.80;99.90
666;DHT22;315;48.738;9.126;2023-08-06T04:45:53;13.80;99.90
666;DHT22;315;48.738;9.126;2023-08-06T04:48:20;13.80;99.90
666;DHT22;315;48.738;9.126;2023-08-06T04:50:46;13.80;99.90
666;DHT22;315;48.738;9.126;2023-08-06T04:53:12;13.90;99.90
666;DHT22;315;48.738;9.126;2023-08-06T04:55:38;13.90;99.90
666;DHT22;315;48.738;9.126;2023-08-06T04:58:03;13.90;99.90
666;DHT22;315;48.738;9.126;2023-08-06T05:00:29;13.90;99.90
666;DHT22;315;48.738;9.126;2023-08-06T05:02:54;14.00;99.90
666;DHT22;315;48.738;9.126;2023-08-06T05:05:20;14.10;99.90
666;DHT22;315;48.738;9.126;2023-08-06T05:07:49;14.10;99.90
666;DHT22;315;48.738;9.126;2023-08-06T05:10:15;14.10;99.90
666;DHT22;315;48.738;9.126;2023-08-06T05:12:41;14.10;99.90
666;DHT22;315;48.738;9.126;2023-08-06T05:15:07;14.10;99.90
666;DHT22;315;48.738;9.126;2023-08-06T05:17:32;14.10;99.90
666;DHT22;315;48.738;9.126;2023-08-06T05:19:58;14.00;99.90
666;DHT22;315;48.738;9.126;2023-08-06T05:22:23;14.00;99.90
666;DHT22;315;48.738;9.126;2023-08-06T05:24:49;14.00;99.90
666;DHT22;315;48.738;9.126;2023-08-06T05:27:14;14.10;99.90
666;DHT22;315;48.738;9.126;2023-08-06T05:29:40;14.30;99.90
666;DHT22;315;48.738;9.126;2023-08-06T05:32:06;14.50;99.90
666;DHT22;315;48.738;9.126;2023-08-06T05:34:31;14.80;99.90
666;DHT22;315;48.738;9.126;2023-08-06T05:36:57;15.00;99.90
666;DHT22;315;48.738;9.126;2023-08-06T05:39:22;15.20;99.90
666;DHT22;315;48.738;9.126;2023-08-06T05:41:48;15.50;99.90
666;DHT22;315;48.738;9.126;2023-08-06T05:44:13;15.60;99.90
666;DHT22;315;48.738;9.126;2023-08-06T05:46:39;15.70;99.90
666;DHT22;315;48.738;9.126;2023-08-06T05:49:04;15.60;99.90
666;DHT22;315;48.738;9.126;2023-08-06T05:51:30;15.60;99.90
666;DHT22;315;48.738;9.126;2023-08-06T05:53:56;15.70;99.90
666;DHT22;315;48.738;9.126;2023-08-06T05:56:21;15.60;99.90
666;DHT22;315;48.738;9.126;2023-08-06T05:58:47;15.50;99.90
666;DHT22;315;48.738;9.126;2023-08-06T06:01:13;15.50;99.90
666;DHT22;315;48.738;9.126;2023-08-06T06:03:38;15.30;99.90
666;DHT22;315;48.738;9.126;2023-08-06T06:06:04;15.10;99.90
666;DHT22;315;48.738;9.126;2023-08-06T06:08:29;15.00;99.90
666;DHT22;315;48.738;9.126;2023-08-06T06:10:55;14.90;99.90
666;DHT22;315;48.738;9.126;2023-08-06T06:13:20;14.90;99.90
666;DHT22;315;48.738;9.126;2023-08-06T06:15:46;14.80;99.90
666;DHT22;315;48.738;9.126;2023-08-06T06:18:13;14.80;99.90
666;DHT22;315;48.738;9.126;2023-08-06T06:20:39;15.00;99.90
666;DHT22;315;48.738;9.126;2023-08-06T06:23:04;15.00;99.90
666;DHT22;315;48.738;9.126;2023-08-06T06:25:30;15.00;99.90
666;DHT22;315;48.738;9.126;2023-08-06T06:27:55;15.00;99.90
666;DHT22;315;48.738;9.126;2023-08-06T06:30:21;15.00;99.90
666;DHT22;315;48.738;9.126;2023-08-06T06:32:47;15.10;99.90
666;DHT22;315;48.738;9.126;2023-08-06T06:35:12;15.10;99.90
666;DHT22;315;48.738;9.126;2023-08-06T06:37:38;15.10;99.90
666;DHT22;315;48.738;9.126;2023-08-06T06:40:04;15.00;99.90
666;DHT22;315;48.738;9.126;2023-08-06T06:42:29;15.10;99.90
666;DHT22;315;48.738;9.126;2023-08-06T06:44:55;15.00;99.90
666;DHT22;315;48.738;9.126;2023-08-06T06:47:20;15.00;99.90
666;DHT22;315;48.738;9.126;2023-08-06T06:49:46;14.90;99.90
666;DHT22;315;48.738;9.126;2023-08-06T06:52:11;14.90;99.90
666;DHT22;315;48.738;9.126;2023-08-06T06:54:37;14.80;99.90
666;DHT22;315;48.738;9.126;2023-08-06T06:57:03;14.80;99.90
666;DHT22;315;48.738;9.126;2023-08-06T06:59:28;14.70;99.90
666;DHT22;315;48.738;9.126;2023-08-06T07:01:54;14.60;99.90
666;DHT22;315;48.738;9.126;2023-08-06T07:04:19;14.50;99.90
666;DHT22;315;48.738;9.126;2023-08-06T07:06:45;14.40;99.90
666;DHT22;315;48.738;9.126;2023-08-06T07:09:10;14.40;99.90
666;DHT22;315;48.738;9.126;2023-08-06T07:11:36;14.40;99.90
666;DHT22;315;48.738;9.126;2023-08-06T07:14:01;14.30;99.90
666;DHT22;315;48.738;9.126;2023-08-06T07:16:27;14.30;99.90
666;DHT22;315;48.738;9.126;2023-08-06T07:18:54;14.20;99.90
666;DHT22;315;48.738;9.126;2023-08-06T07:21:20;14.00;99.90
666;DHT22;315;48.738;9.126;2023-08-06T07:23:46;14.00;99.90
666;DHT22;315;48.738;9.126;2023-08-06T07:26:11;14.00;99.90
666;DHT22;315;48.738;9.126;2023-08-06T07:28:37;14.10;99.90
666;DHT22;315;48.738;9.126;2023-08-06T07:31:03;14.10;99.90
666;DHT22;315;48.738;9.126;2023-08-06T07:33:29;14.10;99.90
666;DHT22;315;48.738;9.126;2023-08-06T07:35:55;14.20;99.90
666;DHT22;315;48.738;9.126;2023-08-06T07:38:20;14.20;99.90
666;DHT22;315;48.738;9.126;2023-08-06T07:40:47;14.10;99.90
666;DHT22;315;48.738;9.126;2023-08-06T07:43:12;14.20;99.90
666;DHT22;315;48.738;9.126;2023-08-06T07:45:38;14.30;99.90
666;DHT22;315;48.738;9.126;2023-08-06T07:48:04;14.50;99.90
666;DHT22;315;48.738;9.126;2023-08-06T07:50:29;14.40;99.90
666;DHT22;315;48.738;9.126;2023-08-06T07:52:55;14.50;99.90
666;DHT22;315;48.738;9.126;2023-08-06T07:55:20;14.50;99.90
666;DHT22;315;48.738;9.126;2023-08-06T07:57:46;14.60;99.90
666;DHT22;315;48.738;9.126;2023-08-06T08:00:11;14.80;99.90
666;DHT22;315;48.738;9.126;2023-08-06T08:02:37;14.90;99.90
666;DHT22;315;48.738;9.126;2023-08-06T08:05:03;15.10;99.90
666;DHT22;315;48.738;9.126;2023-08-06T08:07:28;15.40;99.90
666;DHT22;315;48.738;9.126;2023-08-06T08:09:56;15.40;99.90
666;DHT22;315;48.738;9.126;2023-08-06T08:12:22;15.40;99.90
666;DHT22;315;48.738;9.126;2023-08-06T08:14:47;15.30;99.90
666;DHT22;315;48.738;9.126;2023-08-06T08:17:13;15.40;99.90
666;DHT22;315;48.738;9.126;2023-08-06T08:19:40;15.40;99.90
666;DHT22;315;48.738;9.126;2023-08-06T08:22:05;15.20;99.90
666;DHT22;315;48.738;9.126;2023-08-06T08:24:31;15.00;99.90
666;DHT22;315;48.738;9.126;2023-08-06T08:26:57;14.90;99.90
666;DHT22;315;48.738;9.126;2023-08-06T08:29:22;14.90;99.90
666;DHT22;315;48.738;9.126;2023-08-06T08:31:48;14.90;99.90
666;DHT22;315;48.738;9.126;2023-08-06T08:34:17;15.00;99.90
666;DHT22;315;48.738;9.126;2023-08-06T08:36:43;15.00;99.90
666;DHT22;315;48.738;9.126;2023-08-06T08:39:08;15.00;99.90
666;DHT22;315;48.738;9.126;2023-08-06T08:41:36;14.90;99.90
666;DHT22;315;48.738;9.126;2023-08-06T08:44:02;15.00;99.90
666;DHT22;315;48.738;9.126;2023-08-06T08:46:30;15.00;99.90
666;DHT22;315;48.738;9.126;2023-08-06T08:48:59;15.10;99.90
666;DHT22;315;48.738;9.126;2023-08-06T08:51:27;15.40;99.90
666;DHT22;315;48.738;9.126;2023-08-06T08:53:53;15.50;99.90
666;DHT22;315;48.738;9.126;2023-08-06T08:56:21;15.70;99.90
666;DHT22;315;48.738;9.126;2023-08-06T08:58:47;15.80;99.90
666;DHT22;315;48.738;9.126;2023-08-06T09:01:14;15.80;99.90
666;DHT22;315;48.738;9.126;2023-08-06T09:03:41;15.90;99.90
666;DHT22;315;48.738;9.126;2023-08-06T09:06:07;16.00;99.90
666;DHT22;315;48.738;9.126;2023-08-06T09:08:41;16.00;99.90
666;DHT22;315;48.738;9.126;2023-08-06T09:11:09;16.00;99.90
666;DHT22;315;48.738;9.126;2023-08-06T09:13:37;16.30;99.90
666;DHT22;315;48.738;9.126;2023-08-06T09:16:03;16.70;99.90
666;DHT22;315;48.738;9.126;2023-08-06T09:18:29;17.10;99.90
666;DHT22;315;48.738;9.126;2023-08-06T09:20:56;17.30;99.90
666;DHT22;315;48.738;9.126;2023-08-06T09:23:28;17.30;99.90
666;DHT22;315;48.738;9.126;2023-08-06T09:25:55;17.40;99.90
666;DHT22;315;48.738;9.126;2023-08-06T09:28:21;17.40;99.90
666;DHT22;315;48.738;9.126;2023-08-06T09:30:47;17.40;99.90
666;DHT22;315;48.738;9.126;2023-08-06T09:33:17;17.40;99.90
666;DHT22;315;48.738;9.126;2023-08-06T09:35:45;17.30;99.90
666;DHT22;315;48.738;9.126;2023-08-06T09:38:10;17.20;99.90
666;DHT22;315;48.738;9.126;2023-08-06T09:40:37;16.70;99.90
666;DHT22;315;48.738;9.126;2023-08-06T09:43:03;16.40;99.90
666;DHT22;315;48.738;9.126;2023-08-06T09:45:36;16.30;99.90
666;DHT22;315;48.738;9.126;2023-08-06T09:48:06;16.40;99.90
666;DHT22;315;48.738;9.126;2023-08-06T09:50:34;16.60;99.90
666;DHT22;315;48.738;9.126;2023-08-06T09:53:07;16.80;99.90
666;DHT22;315;48.738;9.126;2023-08-06T09:55:34;16.80;99.90
666;DHT22;315;48.738;9.126;2023-08-06T09:58:00;16.70;99.90
666;DHT22;315;48.738;9.126;2023-08-06T10:00:26;16.40;99.90
666;DHT22;315;48.738;9.126;2023-08-06T10:02:53;16.20;99.90
666;DHT22;315;48.738;9.126;2023-08-06T10:05:22;15.90;99.90
666;DHT22;315;48.738;9.126;2023-08-06T10:07:49;15.80;99.90
666;DHT22;315;48.738;9.126;2023-08-06T10:10:16;15.70;99.90
666;DHT22;315;48.738;9.126;2023-08-06T10:12:50;15.60;99.90
666;DHT22;315;48.738;9.126;2023-08-06T10:15:20;15.60;99.90
666;DHT22;315;48.738;9.126;2023-08-06T10:17:47;15.50;99.90
666;DHT22;315;48.738;9.126;2023-08-06T10:20:15;15.50;99.90
666;DHT22;315;48.738;9.126;2023-08-06T10:22:44;15.40;99.90
666;DHT22;315;48.738;9.126;2023-08-06T10:25:10;15.40;99.90
666;DHT22;315;48.738;9.126;2023-08-06T10:27:51;15.50;99.90
666;DHT22;315;48.738;9.126;2023-08-06T10:32:50;15.60;99.90
666;DHT22;315;48.738;9.126;2023-08-06T10:40:30;15.50;99.90
666;DHT22;315;48.738;9.126;2023-08-06T10:42:59;15.50;99.90
666;DHT22;315;48.738;9.126;2023-08-06T10:45:25;15.60;99.90
666;DHT22;315;48.738;9.126;2023-08-06T10:47:54;15.60;99.90
666;DHT22;315;48.738;9.126;2023-08-06T10:50:21;15.70;99.90
666;DHT22;315;48.738;9.126;2023-08-06T10:52:47;15.70;99.90
666;DHT22;315;48.738;9.126;2023-08-06T10:55:14;15.80;99.90
666;DHT22;315;48.738;9.126;2023-08-06T10:57:40;15.80;99.90
666;DHT22;315;48.738;9.126;2023-08-06T11:00:07;15.90;99.90
666;DHT22;315;48.738;9.126;2023-08-06T11:02:36;15.90;99.90
666;DHT22;315;48.738;9.126;2023-08-06T11:05:09;16.10;99.90
666;DHT22;315;48.738;9.126;2023-08-06T11:07:35;16.30;99.90
666;DHT22;315;48.738;9.126;2023-08-06T11:10:08;16.30;99.90
666;DHT22;315;48.738;9.126;2023-08-06T11:12:35;16.10;99.90
666;DHT22;315;48.738;9.126;2023-08-06T11:15:01;15.90;99.90
666;DHT22;315;48.738;9.126;2023-08-06T11:17:29;15.60;99.90
666;DHT22;315;48.738;9.126;2023-08-06T11:19:55;15.30;99.90
666;DHT22;315;48.738;9.126;2023-08-06T11:22:21;15.10;99.90
666;DHT22;315;48.738;9.126;2023-08-06T11:24:48;15.10;99.90
666;DHT22;315;48.738;9.126;2023-08-06T11:27:14;15.10;99.90
666;DHT22;315;48.738;9.126;2023-08-06T11:29:41;15.40;99.90
666;DHT22;315;48.738;9.126;2023-08-06T11:32:08;16.30;99.90
666;DHT22;315;48.738;9.126;2023-08-06T11:34:35;16.70;99.90
666;DHT22;315;48.738;9.126;2023-08-06T11:37:03;16.50;99.90
666;DHT22;315;48.738;9.126;2023-08-06T11:39:29;16.20;99.90
666;DHT22;315;48.738;9.126;2023-08-06T11:41:55;15.90;99.90
666;DHT22;315;48.738;9.126;2023-08-06T11:44:22;15.90;99.90
666;DHT22;315;48.738;9.126;2023-08-06T11:46:55;16.00;99.90
666;DHT22;315;48.738;9.126;2023-08-06T11:49:46;16.30;99.90
666;DHT22;315;48.738;9.126;2023-08-06T11:55:03;16.20;99.90
666;DHT22;315;48.738;9.126;2023-08-06T11:57:32;16.00;99.90
666;DHT22;315;48.738;9.126;2023-08-06T12:00:04;15.90;99.90
666;DHT22;315;48.738;9.126;2023-08-06T12:02:34;15.80;99.90
666;DHT22;315;48.738;9.126;2023-08-06T12:05:09;15.80;99.90
666;DHT22;315;48.738;9.126;2023-08-06T12:07:39;15.90;99.90
666;DHT22;315;48.738;9.126;2023-08-06T12:10:05;16.10;99.90
666;DHT22;315;48.738;9.126;2023-08-06T12:12:31;16.40;99.90
666;DHT22;315;48.738;9.126;2023-08-06T12:14:56;16.70;99.90
666;DHT22;315;48.738;9.126;2023-08-06T12:17:23;17.00;99.90
666;DHT22;315;48.738;9.126;2023-08-06T12:19:49;16.80;99.90
666;DHT22;315;48.738;9.126;2023-08-06T12:22:15;16.70;99.90
666;DHT22;315;48.738;9.126;2023-08-06T12:24:44;16.70;99.90
666;DHT22;315;48.738;9.126;2023-08-06T12:27:10;16.50;99.90
666;DHT22;315;48.738;9.126;2023-08-06T12:29:43;16.50;99.90
666;DHT22;315;48.738;9.126;2023-08-06T12:32:10;16.60;99.90
666;DHT22;315;48.738;9.126;2023-08-06T12:34:37;16.70;99.90
666;DHT22;315;48.738;9.126;2023-08-06T12:37:02;17.00;99.90
666;DHT22;315;48.738;9.126;2023-08-06T12:39:28;17.60;99.90
666;DHT22;315;48.738;9.126;2023-08-06T12:41:55;18.80;99.90
666;DHT22;315;48.738;9.126;2023-08-06T12:44:22;19.50;99.90
666;DHT22;315;48.738;9.126;2023-08-06T12:46:48;20.40;99.90
666;DHT22;315;48.738;9.126;2023-08-06T12:49:13;19.70;99.90
666;DHT22;315;48.738;9.126;2023-08-06T12:51:39;19.60;99.90
666;DHT22;315;48.738;9.126;2023-08-06T12:54:04;19.00;99.90
666;DHT22;315;48.738;9.126;2023-08-06T12:56:30;18.50;99.90
666;DHT22;315;48.738;9.126;2023-08-06T12:58:55;18.10;99.90
666;DHT22;315;48.738;9.126;2023-08-06T13:01:21;18.10;99.90
666;DHT22;315;48.738;9.126;2023-08-06T13:03:46;17.70;99.90
666;DHT22;315;48.738;9.126;2023-08-06T13:06:12;17.50;99.90
666;DHT22;315;48.738;9.126;2023-08-06T13:08:37;17.30;99.90
666;DHT22;315;48.738;9.126;2023-08-06T13:11:04;17.40;99.90
666;DHT22;315;48.738;9.126;2023-08-06T13:13:30;17.50;99.90
666;DHT22;315;48.738;9.126;2023-08-06T13:15:55;17.80;99.90
666;DHT22;315;48.738;9.126;2023-08-06T13:18:21;18.30;99.90
666;DHT22;315;48.738;9.126;2023-08-06T13:20:46;19.10;99.90
666;DHT22;315;48.738;9.126;2023-08-06T13:23:14;19.90;99.90
666;DHT22;315;48.738;9.126;2023-08-06T13:25:42;20.20;99.90
666;DHT22;315;48.738;9.126;2023-08-06T13:28:07;20.10;99.90
666;DHT22;315;48.738;9.126;2023-08-06T13:30:33;19.90;99.90
666;DHT22;315;48.738;9.126;2023-08-06T13:33:01;19.50;99.90
666;DHT22;315;48.738;9.126;2023-08-06T13:35:26;19.40;99.90
666;DHT22;315;48.738;9.126;2023-08-06T13:37:52;19.20;99.90
666;DHT22;315;48.738;9.126;2023-08-06T13:40:18;18.90;99.90
666;DHT22;315;48.738;9.126;2023-08-06T13:42:43;18.30;99.90
666;DHT22;315;48.738;9.126;2023-08-06T13:45:09;18.00;99.90
666;DHT22;315;48.738;9.126;2023-08-06T13:47:35;18.10;99.90
666;DHT22;315;48.738;9.126;2023-08-06T13:50:00;18.00;99.90
666;DHT22;315;48.738;9.126;2023-08-06T13:52:27;18.10;99.90
666;DHT22;315;48.738;9.126;2023-08-06T13:54:53;17.90;99.90
666;DHT22;315;48.738;9.126;2023-08-06T13:57:18;17.80;99.90
666;DHT22;315;48.738;9.126;2023-08-06T13:59:44;17.90;99.90
666;DHT22;315;48.738;9.126;2023-08-06T14:02:10;18.10;99.90
666;DHT22;315;48.738;9.126;2023-08-06T14:04:35;18.50;99.90
666;DHT22;315;48.738;9.126;2023-08-06T14:07:03;18.90;99.90
666;DHT22;315;48.738;9.126;2023-08-06T14:09:28;19.70;99.90
666;DHT22;315;48.738;9.126;2023-08-06T14:11:54;20.10;99.90
666;DHT22;315;48.738;9.126;2023-08-06T14:14:19;20.30;99.90
666;DHT22;315;48.738;9.126;2023-08-06T14:16:54;20.10;99.90
666;DHT22;315;48.738;9.126;2023-08-06T14:19:20;19.70;99.90
666;DHT22;315;48.738;9.126;2023-08-06T14:21:46;19.60;99.90
666;DHT22;315;48.738;9.126;2023-08-06T14:24:11;19.30;99.90
666;DHT22;315;48.738;9.126;2023-08-06T14:26:37;19.10;99.90
666;DHT22;315;48.738;9.126;2023-08-06T14:29:03;18.90;99.90
666;DHT22;315;48.738;9.126;2023-08-06T14:31:28;18.70;99.90
666;DHT22;315;48.738;9.126;2023-08-06T14:33:54;18.60;99.90
666;DHT22;315;48.738;9.126;2023-08-06T14:36:19;18.40;99.90
666;DHT22;315;48.738;9.126;2023-08-06T14:38:45;18.50;99.90
666;DHT22;315;48.738;9.126;2023-08-06T14:41:11;18.20;99.90
666;DHT22;315;48.738;9.126;2023-08-06T14:43:36;17.90;99.90
666;DHT22;315;48.738;9.126;2023-08-06T14:46:02;17.70;99.90
666;DHT22;315;48.738;9.126;2023-08-06T14:48:28;17.50;99.90
666;DHT22;315;48.738;9.126;2023-08-06T14:50:54;17.10;99.90
666;DHT22;315;48.738;9.126;2023-08-06T14:53:20;16.90;99.90
666;DHT22;315;48.738;9.126;2023-08-06T14:55:45;16.90;99.90
666;DHT22;315;48.738;9.126;2023-08-06T14:58:11;16.80;99.90
666;DHT22;315;48.738;9.126;2023-08-06T15:00:37;16.90;99.90
666;DHT22;315;48.738;9.126;2023-08-06T15:03:02;17.00;99.90
666;DHT22;315;48.738;9.126;2023-08-06T15:05:28;17.10;99.90
666;DHT22;315;48.738;9.126;2023-08-06T15:07:53;16.90;99.90
666;DHT22;315;48.738;9.126;2023-08-06T15:10:19;16.90;99.90
666;DHT22;315;48.738;9.126;2023-08-06T15:12:44;17.10;99.90
666;DHT22;315;48.738;9.126;2023-08-06T15:15:10;17.30;99.90
666;DHT22;315;48.738;9.126;2023-08-06T15:17:36;17.60;99.90
666;DHT22;315;48.738;9.126;2023-08-06T15:20:02;17.40;99.90
666;DHT22;315;48.738;9.126;2023-08-06T15:22:28;17.50;99.90
666;DHT22;315;48.738;9.126;2023-08-06T15:24:57;17.80;99.90
666;DHT22;315;48.738;9.126;2023-08-06T15:27:23;17.60;99.90
666;DHT22;315;48.738;9.126;2023-08-06T15:29:49;17.70;99.90
666;DHT22;315;48.738;9.126;2023-08-06T15:32:14;17.70;99.90
666;DHT22;315;48.738;9.126;2023-08-06T15:34:40;17.60;99.90
666;DHT22;315;48.738;9.126;2023-08-06T15:37:06;17.50;99.90
666;DHT22;315;48.738;9.126;2023-08-06T15:39:32;17.30;99.90
666;DHT22;315;48.738;9.126;2023-08-06T15:41:58;17.20;99.90
666;DHT22;315;48.738;9.126;2023-08-06T15:44:24;17.10;99.90
666;DHT22;315;48.738;9.126;2023-08-06T15:46:49;16.90;99.90
666;DHT22;315;48.738;9.126;2023-08-06T15:49:15;16.80;99.90
666;DHT22;315;48.738;9.126;2023-08-06T15:51:41;16.80;99.90
666;DHT22;315;48.738;9.126;2023-08-06T15:54:07;16.90;99.90
666;DHT22;315;48.738;9.126;2023-08-06T15:56:32;16.90;99.90
666;DHT22;315;48.738;9.126;2023-08-06T15:59:02;16.90;99.90
666;DHT22;315;48.738;9.126;2023-08-06T16:01:43;16.70;99.90
666;DHT22;315;48.738;9.126;2023-08-06T16:04:09;16.70;99.90
666;DHT22;315;48.738;9.126;2023-08-06T16:06:34;16.70;99.90
666;DHT22;315;48.738;9.126;2023-08-06T16:09:00;16.90;99.90
666;DHT22;315;48.738;9.126;2023-08-06T16:11:25;17.00;99.90
666;DHT22;315;48.738;9.126;2023-08-06T16:13:51;17.00;99.90
666;DHT22;315;48.738;9.126;2023-08-06T16:16:16;16.90;99.90
666;DHT22;315;48.738;9.126;2023-08-06T16:18:42;16.90;99.90
666;DHT22;315;48.738;9.126;2023-08-06T16:21:07;16.80;99.90
666;DHT22;315;48.738;9.126;2023-08-06T16:23:33;16.90;99.90
666;DHT22;315;48.738;9.126;2023-08-06T16:25:58;16.90;99.90
666;DHT22;315;48.738;9.126;2023-08-06T16:28:24;16.70;99.90
666;DHT22;315;48.738;9.126;2023-08-06T16:30:49;16.70;99.90
666;DHT22;315;48.738;9.126;2023-08-06T16:33:15;16.60;99.90
666;DHT22;315;48.738;9.126;2023-08-06T16:35:40;16.70;99.90
666;DHT22;315;48.738;9.126;2023-08-06T16:38:06;16.70;99.90
666;DHT22;315;48.738;9.126;2023-08-06T16:40:32;16.60;99.90
666;DHT22;315;48.738;9.126;2023-08-06T16:42:58;16.70;99.90
666;DHT22;315;48.738;9.126;2023-08-06T16:45:23;16.60;99.90